Архив погоды в Колымской

Метеограмма Колымская
Вторник, 21 Августа
Время местн. Темп Ветер Видим Явления Облачность нижн/средн/верх Атм. давл. Влжн Точка росы ВНГО R Сост. почвы Tg s
Напр Скр Прв ур.ст ур.м изм
13:00 +15.7° В 2 - 50 км - ясно 683 753 -0.2 30% -1.9° более 2.5 км - - - -
10:00 - +12.1° Ю-З 2 - - - - 683 754 -0.6 45% +0.4° - - - - -
07:00 +1.8° штиль 0 - более 50 км - ясно 683 758 -0.9 83% -0.8° более 2.5 км 0 Сухая (без трещин) -1° -
04:00 - -2.7° В,Ю-В 1 - - - - 684 760 -0.5 99% -2.8° - - - - -
01:00 -0.4° В,Ю-В 1 - 50 км - ясно 685 759 -0.6 89% -2° более 2.5 км - - - -
Понедельник, 20 Августа
Время местн. Темп Ветер Видим Явления Облачность нижн/средн/верх Атм. давл. Влжн Точка росы ВНГО R Сост. почвы Tg s
Напр Скр Прв ур.ст ур.м изм
22:00 - +0.2° штиль 0 - - - - 685 760 +0.1 88% -1.6° - - - - -
19:00 +11° С 1 - более 50 км - ясно 685 757 -0.2 42% -1.4° более 2.5 км 0 - - -
16:00 - +14.8° В 1 - - - - 685 756 -0.8 30% -2.4° - - - - -
13:00 +13.2° С-В 3 10 более 50 км - ясно 686 686 -0.6 30% -4° более 2.5 км - - - -
10:00 - +11.3° С 3 - - - - 687 759 +0.1 37% -2.7° - - - - -
07:00 +8.9° С,С-В 4 - 50 км - переменная облачность 687 759 +1 68% +3.3° 1.5 км 0 Сухая (без трещин) - -
04:00 - +10.1° С,С-В 2 - - - - 686 758 +0.7 73% +5.5° - - - - -
01:00 +11.8° С,С-В 4 14 более 50 км - переменная облачность 685 756 +0.8 69% +6.3° 1.5 км - - - -
Воскресенье, 19 Августа
Время местн. Темп Ветер Видим Явления Облачность нижн/средн/верх Атм. давл. Влжн Точка росы ВНГО R Сост. почвы Tg s
Напр Скр Прв ур.ст ур.м изм
22:00 - +15.1° С-В 7 14 - - - 684 755 +0.4 63% +8° - - - - -
19:00 +18.2° С-В 4 - 50 км - преимущественно облачно 684 754 +0.8 51% +7.9° 1.5 км 0 - - -
16:00 - +22.2° В,С-В 1 - - - - 683 752 -0.7 34% +5.4° - - - - -
13:00 +22.5° Ю-З 3 - более 50 км - незначительная облачность 684 752 -1.1 36% +6.7° 1.5 км - - - -
10:00 - +17.9° Ю-З 2 - - - - 685 755 -0.4 53% +8.3° - - - - -
07:00 +12.3° С,С-В 1 - более 50 км - переменная облачность 685 756 -0.2 73% +7.6° более 2.5 км 0 Влажная (без луж) +4° -
04:00 - +5.4° В,Ю-В 1 - - - - 685 759 -0.2 99% +5.3° - - - - -
01:00 +5.4° В,Ю-В 1 - более 50 км - переменная облачность 685 759 -0.2 95% +4.7° более 2.5 км - - - -
Суббота, 18 Августа
Время местн. Темп Ветер Видим Явления Облачность нижн/средн/верх Атм. давл. Влжн Точка росы ВНГО R Сост. почвы Tg s
Напр Скр Прв ур.ст ур.м изм
22:00 - +6.4° В,С-В 1 - - - - 686 759 +0.5 83% +3.8° - - - - -
19:00 +16.3° Ю,Ю-В 1 - более 50 км - ясно 685 756 -0.1 45% +4.3° более 2.5 км 0 - - -
16:00 - +22.5° З 2 - - - - 685 754 -1.1 31% +4.6° - - - - -
13:00 +21° З,Ю-З 3 - более 50 км - переменная облачность 686 756 -1 36% +5.3° более 2.5 км - - - -
10:00 - +16.9° З 2 - - - - 687 758 -0.4 59% +8.9° - - - - -